Time;durP1;ratioP1;P1;durP2;ratioP2;P2;SDS_P1;SDS_P2;PMS_P1;PMS_P2;Temp;Humidity;BMP_temperature;BMP_pressure;BME280_temperature;BME280_humidity;BME280_pressure;Samples;Min_cycle;Max_cycle;Signal;HPM_P1;HPM_P2
2023/10/16 00:01:42;;;;;;;16.95;11.65;;;18.80;99.90;;;;;;5073642;28;20013;-81
2023/10/16 00:04:10;;;;;;;20.90;11.98;;;18.90;99.90;;;;;;5073096;28;20024;-81
2023/10/16 00:06:37;;;;;;;20.83;11.93;;;18.90;99.90;;;;;;5073423;28;20023;-81
2023/10/16 00:09:21;;;;;;;18.15;11.52;;;18.80;99.90;;;;;;5092291;28;20050;-82
2023/10/16 00:11:49;;;;;;;21.38;12.05;;;18.80;99.90;;;;;;5093589;28;20479;-81
2023/10/16 00:14:25;;;;;;;20.65;11.50;;;19.00;99.90;;;;;;5092434;28;20031;-81
2023/10/16 00:16:52;;;;;;;23.23;12.73;;;19.10;99.90;;;;;;5093445;28;20024;-80
2023/10/16 00:19:18;;;;;;;20.23;11.20;;;19.20;99.90;;;;;;5075477;28;20035;-81
2023/10/16 00:21:46;;;;;;;17.95;11.02;;;19.30;99.90;;;;;;5075109;28;20082;-81
2023/10/16 00:24:13;;;;;;;20.52;10.77;;;19.30;99.90;;;;;;5092187;28;20107;-81
2023/10/16 00:26:49;;;;;;;21.83;11.13;;;19.40;99.90;;;;;;5093337;28;20051;-81
2023/10/16 00:29:19;;;;;;;16.85;10.48;;;19.40;99.90;;;;;;5073554;28;20048;-80
2023/10/16 00:31:52;;;;;;;14.60;9.93;;;19.40;99.90;;;;;;5072237;28;20032;-81
2023/10/16 00:34:22;;;;;;;19.45;10.63;;;19.40;99.90;;;;;;5089127;28;20293;-80
2023/10/16 00:36:53;;;;;;;19.60;10.85;;;19.50;99.90;;;;;;5056305;28;20490;-81
2023/10/16 00:39:20;;;;;;;21.23;11.90;;;19.40;99.90;;;;;;5075636;28;20032;-80
2023/10/16 00:41:49;;;;;;;16.70;10.43;;;19.50;99.90;;;;;;5092296;28;20028;-80
2023/10/16 00:44:19;;;;;;;18.20;10.75;;;19.40;99.90;;;;;;5075534;28;20024;-81
2023/10/16 00:46:48;;;;;;;21.88;11.32;;;19.50;99.90;;;;;;5093188;28;20035;-81
2023/10/16 00:49:18;;;;;;;17.90;10.57;;;19.50;99.90;;;;;;5075481;28;20030;-81
2023/10/16 00:51:46;;;;;;;16.02;11.57;;;19.60;99.90;;;;;;5091931;28;20056;-81
2023/10/16 00:54:28;;;;;;;16.05;11.25;;;19.60;99.90;;;;;;5093065;28;20024;-81
2023/10/16 00:57:17;;;;;;;20.42;11.05;;;19.60;99.90;;;;;;5091612;28;20055;-81
2023/10/16 00:59:43;;;;;;;15.05;10.02;;;19.60;99.90;;;;;;5091378;28;20033;-82
2023/10/16 01:04:37;;;;;;;22.20;11.45;;;19.50;99.90;;;;;;5092963;28;20039;-81
2023/10/16 01:07:05;;;;;;;18.42;11.10;;;19.60;99.90;;;;;;5091721;28;20028;-81
2023/10/16 01:09:35;;;;;;;18.65;10.95;;;19.50;99.90;;;;;;5091654;28;20111;-81
2023/10/16 01:12:06;;;;;;;23.45;11.88;;;19.50;99.90;;;;;;5074890;28;20122;-81
2023/10/16 01:14:37;;;;;;;17.02;11.60;;;19.50;99.90;;;;;;5095208;28;20460;-81
2023/10/16 01:17:12;;;;;;;18.00;11.40;;;19.50;99.90;;;;;;5079264;28;20427;-81
2023/10/16 01:19:43;;;;;;;17.73;11.13;;;19.50;99.90;;;;;;5080030;28;20020;-81
2023/10/16 01:22:13;;;;;;;19.75;11.50;;;19.50;99.90;;;;;;5095939;28;20078;-82
2023/10/16 01:24:43;;;;;;;14.30;11.35;;;19.50;99.90;;;;;;5097210;28;20537;-82
2023/10/16 01:27:37;;;;;;;18.70;11.82;;;19.50;99.90;;;;;;5078962;28;20032;-81
2023/10/16 01:29:59;;;;;;;19.13;11.38;;;19.40;99.90;;;;;;5096737;28;20097;-81
2023/10/16 01:32:28;;;;;;;12.45;11.15;;;19.50;99.90;;;;;;5097419;28;20085;-82
2023/10/16 01:34:55;;;;;;;18.10;11.27;;;19.40;99.90;;;;;;5096131;28;20099;-81
2023/10/16 01:37:23;;;;;;;15.50;11.32;;;19.40;99.90;;;;;;5096633;28;20024;-81
2023/10/16 01:39:49;;;;;;;23.52;11.13;;;19.50;99.90;;;;;;5095299;28;20039;-81
2023/10/16 01:42:18;;;;;;;16.90;11.13;;;19.50;99.90;;;;;;5078355;28;20027;-81
2023/10/16 01:44:45;;;;;;;16.33;10.77;;;19.60;99.90;;;;;;5095373;28;20027;-81
2023/10/16 01:47:16;;;;;;;16.25;10.68;;;19.60;99.90;;;;;;5078258;28;20476;-81
2023/10/16 01:49:50;;;;;;;26.15;11.70;;;19.60;99.90;;;;;;5094467;28;20032;-82
2023/10/16 01:52:16;;;;;;;17.83;11.30;;;19.60;99.90;;;;;;5094303;28;20094;-81
2023/10/16 01:54:46;;;;;;;22.50;11.93;;;19.60;99.90;;;;;;5095009;28;20031;-81
2023/10/16 01:57:14;;;;;;;15.30;11.45;;;19.50;99.90;;;;;;5078194;28;20496;-81
2023/10/16 01:59:48;;;;;;;22.15;11.02;;;19.50;99.90;;;;;;5095382;28;20473;-81
2023/10/16 02:02:17;;;;;;;13.63;12.20;;;19.50;99.90;;;;;;5095626;28;20032;-81
2023/10/16 02:04:44;;;;;;;19.10;13.63;;;19.60;99.90;;;;;;5095246;28;20020;-81
2023/10/16 02:07:14;;;;;;;16.45;14.95;;;19.70;99.90;;;;;;5094991;28;20353;-81
2023/10/16 02:09:40;;;;;;;20.30;16.38;;;19.90;99.90;;;;;;5078474;28;20052;-81
2023/10/16 02:12:14;;;;;;;18.75;16.85;;;20.20;99.90;;;;;;5095041;28;20035;-81
2023/10/16 02:14:41;;;;;;;19.55;17.35;;;20.40;99.90;;;;;;5095284;28;20059;-81
2023/10/16 02:17:19;;;;;;;19.88;17.83;;;20.50;99.90;;;;;;5094970;28;20024;-81
2023/10/16 02:19:47;;;;;;;23.15;17.98;;;20.60;99.90;;;;;;5096417;28;20531;-81
2023/10/16 02:22:16;;;;;;;21.05;17.27;;;20.70;99.90;;;;;;5077588;28;20526;-81
2023/10/16 02:24:49;;;;;;;19.88;18.08;;;20.70;99.90;;;;;;5093917;28;20032;-80
2023/10/16 02:27:20;;;;;;;21.73;17.25;;;20.60;99.90;;;;;;5094399;28;20016;-81
2023/10/16 02:29:49;;;;;;;18.83;17.13;;;20.60;99.90;;;;;;5094433;28;20028;-81
2023/10/16 02:32:16;;;;;;;18.23;16.42;;;20.60;99.90;;;;;;5095456;28;20056;-81
2023/10/16 02:34:49;;;;;;;18.60;16.45;;;20.60;99.90;;;;;;5094272;28;20110;-81
2023/10/16 02:37:16;;;;;;;22.23;16.70;;;20.60;99.90;;;;;;5095798;28;20032;-81
2023/10/16 02:39:50;;;;;;;24.85;16.50;;;20.60;99.90;;;;;;5094874;28;20024;-81
2023/10/16 02:42:17;;;;;;;19.08;14.70;;;20.60;99.90;;;;;;5096110;28;20031;-81
2023/10/16 02:44:45;;;;;;;18.25;13.98;;;20.70;99.90;;;;;;5094033;28;20103;-81
2023/10/16 02:47:19;;;;;;;24.40;15.15;;;20.70;99.90;;;;;;5095110;28;20432;-81
2023/10/16 02:49:49;;;;;;;18.98;14.18;;;20.70;99.90;;;;;;5094044;28;20546;-81
2023/10/16 02:52:16;;;;;;;26.08;13.90;;;20.60;99.90;;;;;;5093664;28;20087;-81
2023/10/16 02:54:45;;;;;;;19.45;12.75;;;20.60;99.90;;;;;;5094114;28;20020;-81
2023/10/16 02:57:12;;;;;;;21.98;13.00;;;20.60;99.90;;;;;;5093549;28;20020;-80
2023/10/16 02:59:39;;;;;;;20.33;13.05;;;20.60;99.90;;;;;;5093806;28;20481;-81
2023/10/16 03:02:17;;;;;;;27.27;12.25;;;20.50;99.90;;;;;;5076872;28;20081;-80
2023/10/16 03:04:49;;;;;;;21.15;12.02;;;20.50;99.90;;;;;;5077145;28;20048;-80
2023/10/16 03:07:16;;;;;;;25.38;11.93;;;20.40;99.90;;;;;;5094269;28;20082;-83
2023/10/16 03:09:43;;;;;;;19.00;11.88;;;20.40;99.90;;;;;;5076896;28;20408;-83
2023/10/16 03:12:10;;;;;;;23.48;11.85;;;20.30;99.90;;;;;;5093754;28;20036;-82
2023/10/16 03:14:46;;;;;;;21.42;11.35;;;20.40;99.90;;;;;;5076910;28;20067;-82
2023/10/16 03:17:25;;;;;;;19.95;11.15;;;20.30;99.90;;;;;;5076800;28;20028;-82
2023/10/16 03:19:55;;;;;;;20.50;10.45;;;20.30;99.90;;;;;;5093528;28;20077;-82
2023/10/16 03:22:22;;;;;;;21.75;11.02;;;20.20;99.90;;;;;;5093517;28;20028;-82
2023/10/16 03:24:49;;;;;;;25.83;11.52;;;20.20;99.90;;;;;;5093523;28;20442;-83
2023/10/16 03:27:28;;;;;;;18.38;9.35;;;20.20;99.90;;;;;;5076512;28;20052;-83
2023/10/16 03:29:56;;;;;;;18.35;10.27;;;20.20;99.90;;;;;;5093403;28;20123;-83
2023/10/16 03:32:23;;;;;;;23.25;10.02;;;20.10;99.90;;;;;;5093183;28;20529;-82
2023/10/16 03:34:51;;;;;;;23.15;9.95;;;20.10;99.90;;;;;;5093291;28;20553;-82
2023/10/16 03:37:19;;;;;;;20.23;9.82;;;20.10;99.90;;;;;;5093384;28;20024;-82
2023/10/16 03:39:46;;;;;;;30.00;10.18;;;20.10;99.90;;;;;;5094218;28;20032;-83
2023/10/16 03:42:17;;;;;;;16.20;10.45;;;20.00;99.90;;;;;;5093253;28;20085;-83
2023/10/16 03:44:44;;;;;;;23.90;9.73;;;19.90;99.90;;;;;;5094185;28;20035;-83
2023/10/16 03:47:11;;;;;;;22.98;10.15;;;19.90;99.90;;;;;;5075939;28;20385;-84
2023/10/16 03:49:38;;;;;;;24.40;9.75;;;19.90;99.90;;;;;;5093101;28;20028;-84
2023/10/16 03:52:07;;;;;;;26.02;11.07;;;19.80;99.90;;;;;;5092816;28;20607;-83
2023/10/16 03:54:35;;;;;;;26.48;9.70;;;19.80;99.90;;;;;;5076274;28;20024;-82
2023/10/16 03:57:09;;;;;;;29.73;10.52;;;19.80;99.90;;;;;;5092077;28;20024;-81
2023/10/16 03:59:38;;;;;;;;;;;19.80;99.90;;;;;;5093247;28;20028;-82
2023/10/16 04:02:07;;;;;;;23.40;10.05;;;19.80;99.90;;;;;;5093949;28;19904;-81
2023/10/16 04:04:34;;;;;;;19.15;9.50;;;19.80;99.90;;;;;;5092673;28;20552;-82
2023/10/16 04:07:03;;;;;;;29.17;9.70;;;19.80;99.90;;;;;;5092709;28;20034;-81
2023/10/16 04:09:33;;;;;;;18.63;9.73;;;19.70;99.90;;;;;;5092453;28;20504;-81
2023/10/16 04:12:04;;;;;;;22.73;9.55;;;19.70;99.90;;;;;;5075479;28;20153;-81
2023/10/16 04:17:37;;;;;;;21.52;10.02;;;19.70;99.90;;;;;;5092221;28;20059;-82
2023/10/16 04:22:58;;;;;;;19.17;9.65;;;19.80;99.90;;;;;;5076063;28;20496;-86
2023/10/16 04:25:33;;;;;;;21.83;9.30;;;19.80;99.90;;;;;;5074394;28;20064;-81
2023/10/16 04:28:18;;;;;;;21.55;8.60;;;19.80;99.90;;;;;;5090945;28;20107;-81
2023/10/16 04:30:47;;;;;;;21.52;9.32;;;19.80;99.90;;;;;;5074024;28;20043;-81
2023/10/16 04:33:16;;;;;;;22.83;8.40;;;19.80;99.90;;;;;;5091057;28;20126;-81
2023/10/16 04:38:27;;;;;;;18.08;8.20;;;19.80;99.90;;;;;;5070808;28;20501;-81
2023/10/16 04:43:51;;;;;;;22.80;8.68;;;19.80;99.90;;;;;;5070755;28;20031;-81
2023/10/16 04:46:20;;;;;;;25.05;8.02;;;19.70;99.90;;;;;;5071037;28;20027;-81
2023/10/16 04:48:51;;;;;;;18.83;8.43;;;19.60;99.90;;;;;;5066366;28;20048;-81
2023/10/16 04:51:22;;;;;;;17.15;8.32;;;19.70;99.90;;;;;;5062693;28;20032;-81
2023/10/16 04:59:58;;;;;;;23.95;7.97;;;19.60;99.90;;;;;;5092233;28;20093;-79
2023/10/16 05:02:37;;;;;;;13.30;7.20;;;19.50;99.90;;;;;;5092837;28;20481;-81
2023/10/16 05:07:53;;;;;;;19.83;7.78;;;19.50;99.90;;;;;;5092746;28;20020;-81
2023/10/16 05:16:30;;;;;;;23.40;8.27;;;19.50;99.90;;;;;;5091862;28;20101;-81
2023/10/16 05:18:43;;;;;;;25.60;8.15;;;19.40;99.90;;;;;;5092495;28;20115;-80
2023/10/16 06:16:28;;;;;;;23.58;21.25;;;23.00;99.90;;;;;;5095907;28;20089;-83
2023/10/16 06:18:55;;;;;;;22.67;20.52;;;23.00;99.90;;;;;;5094387;28;20031;-82
2023/10/16 06:21:21;;;;;;;22.60;20.45;;;22.90;99.90;;;;;;5096127;28;20381;-86
2023/10/16 06:23:50;;;;;;;22.52;19.65;;;22.80;99.90;;;;;;5078691;28;20016;-85
2023/10/16 06:26:21;;;;;;;22.02;19.70;;;22.80;99.90;;;;;;5078047;28;20062;-85
2023/10/16 06:28:52;;;;;;;22.27;19.88;;;22.50;99.90;;;;;;5078624;28;20020;-84
2023/10/16 06:31:22;;;;;;;21.40;19.38;;;22.50;99.90;;;;;;5077968;28;20028;-85
2023/10/16 06:33:59;;;;;;;21.83;19.60;;;22.60;99.90;;;;;;5078167;28;20477;-84
2023/10/16 06:36:28;;;;;;;21.92;19.73;;;22.60;99.90;;;;;;5078144;28;20036;-84
2023/10/16 06:38:58;;;;;;;21.98;19.77;;;22.70;99.90;;;;;;5078234;28;20363;-85
2023/10/16 06:41:25;;;;;;;23.77;19.90;;;22.70;99.90;;;;;;5078084;28;20087;-85
2023/10/16 06:43:51;;;;;;;21.73;19.50;;;22.70;99.90;;;;;;5095292;28;20020;-77
2023/10/16 06:46:25;;;;;;;21.77;19.50;;;22.80;99.90;;;;;;5095291;28;20024;-77
2023/10/16 06:48:52;;;;;;;25.40;21.00;;;22.90;99.90;;;;;;5095091;28;20032;-77
2023/10/16 06:51:30;;;;;;;24.00;21.10;;;23.10;99.90;;;;;;5094542;28;20048;-77
2023/10/16 06:54:01;;;;;;;23.55;21.20;;;22.90;99.90;;;;;;5094961;28;20040;-77
2023/10/16 06:56:35;;;;;;;22.40;20.60;;;23.00;99.90;;;;;;5095035;28;20542;-77
2023/10/16 06:59:13;;;;;;;22.85;20.80;;;22.90;99.90;;;;;;5094925;28;20024;-78
2023/10/16 07:01:47;;;;;;;22.58;20.30;;;23.00;99.90;;;;;;5094987;28;20020;-78
2023/10/16 07:04:14;;;;;;;22.85;20.95;;;22.90;99.90;;;;;;5093701;28;20024;-77
2023/10/16 07:06:48;;;;;;;23.48;21.42;;;23.00;99.90;;;;;;5094856;28;20024;-77
2023/10/16 07:09:17;;;;;;;25.40;22.63;;;23.30;99.90;;;;;;5094665;28;20036;-77
2023/10/16 07:11:44;;;;;;;25.75;23.65;;;23.60;99.90;;;;;;5094692;28;20076;-77
2023/10/16 07:14:12;;;;;;;25.85;23.48;;;23.70;99.90;;;;;;5089394;28;20061;-77
2023/10/16 07:16:42;;;;;;;23.05;21.10;;;24.00;99.90;;;;;;5074417;28;20067;-77
2023/10/16 07:19:16;;;;;;;21.42;19.55;;;24.40;99.90;;;;;;5087339;28;20178;-78
2023/10/16 07:21:48;;;;;;;20.35;18.48;;;24.40;99.90;;;;;;5094684;28;20032;-77
2023/10/16 07:24:22;;;;;;;21.10;19.08;;;23.70;99.90;;;;;;5082244;28;20101;-77
2023/10/16 07:26:53;;;;;;;21.17;19.08;;;23.10;99.90;;;;;;5074287;28;20541;-77
2023/10/16 07:29:29;;;;;;;19.60;18.17;;;23.10;99.90;;;;;;5088402;28;20024;-77
2023/10/16 07:32:03;;;;;;;19.45;17.50;;;23.30;99.90;;;;;;5094223;28;20046;-77
2023/10/16 07:34:31;;;;;;;19.45;18.02;;;23.40;99.90;;;;;;5080042;28;20385;-77
2023/10/16 07:36:58;;;;;;;19.63;17.88;;;23.20;99.90;;;;;;5073923;28;20043;-77
2023/10/16 07:39:24;;;;;;;20.85;19.08;;;23.30;99.90;;;;;;5087529;28;20031;-77
2023/10/16 07:41:53;;;;;;;20.35;18.73;;;23.00;99.90;;;;;;5092935;28;20389;-77
2023/10/16 07:44:27;;;;;;;21.50;19.80;;;22.80;99.90;;;;;;5081594;28;20035;-78
2023/10/16 07:46:59;;;;;;;22.00;19.80;;;22.80;99.90;;;;;;5074132;28;20064;-77
2023/10/16 07:49:28;;;;;;;22.75;20.60;;;23.00;99.90;;;;;;5088696;28;20017;-78
2023/10/16 07:51:59;;;;;;;22.63;20.85;;;23.10;99.90;;;;;;5093784;28;20123;-77
2023/10/16 07:54:28;;;;;;;23.02;21.13;;;23.30;99.90;;;;;;5080912;28;20028;-77
2023/10/16 07:57:03;;;;;;;24.80;22.90;;;24.00;99.90;;;;;;5073893;28;20016;-77
2023/10/16 07:59:40;;;;;;;26.05;23.95;;;24.50;99.90;;;;;;5088133;28;20060;-78
2023/10/16 08:02:17;;;;;;;25.35;23.58;;;24.40;99.90;;;;;;5094006;28;20028;-77
2023/10/16 08:04:44;;;;;;;25.42;23.52;;;24.10;99.90;;;;;;5078574;28;20428;-77
2023/10/16 08:07:40;;;;;;;25.80;23.77;;;23.60;99.90;;;;;;5088852;28;20024;-77
2023/10/16 08:10:45;;;;;;;26.25;24.23;;;23.20;99.90;;;;;;5093542;28;20028;-84
2023/10/16 08:12:53;;;;;;;25.88;24.08;;;23.30;99.90;;;;;;5092206;28;20517;-89
2023/10/16 08:15:21;;;;;;;26.77;24.45;;;23.30;99.90;;;;;;5076933;28;20115;-90
2023/10/16 08:17:48;;;;;;;27.00;24.90;;;23.40;99.90;;;;;;5090132;28;20512;-89
2023/10/16 08:20:19;;;;;;;26.48;24.58;;;23.30;99.90;;;;;;5076476;28;20052;-91
2023/10/16 08:22:50;;;;;;;26.90;24.67;;;23.20;99.90;;;;;;5076136;28;20043;-90
2023/10/16 08:25:32;;;;;;;28.35;25.63;;;23.00;99.90;;;;;;5076814;28;20028;-88
2023/10/16 08:28:18;;;;;;;26.90;24.70;;;23.00;99.90;;;;;;5076952;28;20024;-89
2023/10/16 08:33:18;;;;;;;26.17;23.58;;;23.00;99.90;;;;;;5093751;28;20040;-89
2023/10/16 08:35:47;;;;;;;26.77;24.40;;;23.00;99.90;;;;;;5076597;28;20052;-90
2023/10/16 08:38:25;;;;;;;26.13;24.10;;;23.20;99.90;;;;;;5076516;28;20122;-89
2023/10/16 08:41:06;;;;;;;26.00;24.20;;;23.30;99.90;;;;;;5076436;28;20032;-89
2023/10/16 08:43:48;;;;;;;26.88;24.42;;;23.30;99.90;;;;;;5076640;28;20036;-90
2023/10/16 08:49:08;;;;;;;25.98;24.02;;;23.30;99.90;;;;;;5093314;28;20073;-89
2023/10/16 08:51:36;;;;;;;25.70;23.90;;;23.30;99.90;;;;;;5076112;28;20048;-89
2023/10/16 08:54:35;;;;;;;26.13;24.05;;;23.20;99.90;;;;;;5076206;28;20485;-89
2023/10/16 08:56:53;;;;;;;27.10;25.20;;;23.10;99.90;;;;;;5093103;28;20538;-88
2023/10/16 08:59:28;;;;;;;26.00;24.13;;;23.40;99.90;;;;;;5076308;28;20405;-89
2023/10/16 09:02:01;;;;;;;25.58;23.70;;;23.40;99.90;;;;;;5076146;28;20474;-82
2023/10/16 09:04:28;;;;;;;26.20;24.05;;;23.30;99.90;;;;;;5093109;28;20481;-82
2023/10/16 09:06:57;;;;;;;25.42;23.67;;;23.10;99.90;;;;;;5091643;28;20012;-82
2023/10/16 09:09:25;;;;;;;26.02;24.23;;;23.00;99.90;;;;;;5088341;28;20028;-82
2023/10/16 09:12:03;;;;;;;26.80;25.00;;;23.40;99.90;;;;;;5072393;28;20024;-81
2023/10/16 09:14:32;;;;;;;26.50;24.38;;;23.60;99.90;;;;;;5072487;28;20032;-86
2023/10/16 09:17:00;;;;;;;26.63;24.42;;;23.60;99.90;;;;;;5073722;28;20012;-86
2023/10/16 09:19:34;;;;;;;27.15;25.15;;;23.70;99.90;;;;;;5072857;28;20051;-88
2023/10/16 09:22:08;;;;;;;27.35;25.10;;;23.60;99.90;;;;;;5056261;28;20033;-88
2023/10/16 09:24:35;;;;;;;26.42;24.67;;;23.70;99.90;;;;;;5072689;28;20035;-88
2023/10/16 09:27:13;;;;;;;27.83;25.17;;;23.70;99.90;;;;;;5056116;28;20021;-88
2023/10/16 09:29:46;;;;;;;27.15;24.98;;;23.70;99.90;;;;;;5072599;28;20021;-87
2023/10/16 09:32:13;;;;;;;27.80;25.60;;;23.40;99.90;;;;;;5055990;28;20028;-88
2023/10/16 09:34:41;;;;;;;27.60;25.65;;;23.50;99.90;;;;;;5057211;28;20028;-86
2023/10/16 09:37:15;;;;;;;27.52;25.63;;;23.60;99.90;;;;;;5076460;28;20108;-87
2023/10/16 09:39:48;;;;;;;27.35;25.02;;;23.50;99.90;;;;;;5091345;28;20028;-88
2023/10/16 09:42:24;;;;;;;27.00;25.00;;;23.40;99.90;;;;;;5079788;28;20549;-88
2023/10/16 09:44:59;;;;;;;28.05;25.65;;;23.30;99.90;;;;;;5079739;28;20510;-86
2023/10/16 09:47:27;;;;;;;27.55;25.45;;;22.80;99.90;;;;;;5079852;28;20503;-86
2023/10/16 09:50:00;;;;;;;27.90;25.77;;;22.70;99.90;;;;;;5079600;28;20028;-87
2023/10/16 09:52:31;;;;;;;27.38;25.42;;;22.90;99.90;;;;;;5079220;28;20055;-87
2023/10/16 09:55:05;;;;;;;27.75;25.58;;;23.20;99.90;;;;;;5079491;28;20043;-86
2023/10/16 09:57:38;;;;;;;27.50;25.60;;;23.10;99.90;;;;;;5079500;28;20079;-86
2023/10/16 10:03:05;;;;;;;27.77;25.90;;;22.90;99.90;;;;;;5096024;28;20028;-87
2023/10/16 10:08:52;;;;;;;28.13;25.98;;;22.90;99.90;;;;;;5094452;28;20031;-86
2023/10/16 10:11:44;;;;;;;27.55;25.58;;;22.80;99.90;;;;;;5064723;28;20024;-86
2023/10/16 10:14:39;;;;;;;28.63;25.95;;;22.70;99.90;;;;;;5093842;28;20062;-87
2023/10/16 10:17:10;;;;;;;28.40;26.10;;;22.90;99.90;;;;;;5079270;28;20032;-86
2023/10/16 10:19:39;;;;;;;26.88;24.88;;;23.00;99.90;;;;;;5078955;28;20036;-87
2023/10/16 10:22:27;;;;;;;26.90;24.77;;;23.20;99.90;;;;;;5079138;28;20039;-87
2023/10/16 10:25:56;;;;;;;27.33;25.23;;;23.40;99.90;;;;;;5078731;28;20028;-87
2023/10/16 10:28:15;;;;;;;27.50;24.95;;;23.20;99.90;;;;;;5088469;28;20036;-87
2023/10/16 10:30:45;;;;;;;26.70;24.73;;;23.10;99.90;;;;;;5079022;28;20039;-87
2023/10/16 10:33:33;;;;;;;27.30;25.23;;;23.10;99.90;;;;;;5078589;28;20127;-86
2023/10/16 10:36:27;;;;;;;26.30;24.60;;;22.90;99.90;;;;;;5078595;28;20477;-87
2023/10/16 10:39:21;;;;;;;26.38;24.73;;;22.70;99.90;;;;;;5075236;28;20470;-87
2023/10/16 10:41:51;;;;;;;27.17;25.25;;;22.90;99.90;;;;;;5058457;28;20064;-88
2023/10/16 10:44:40;;;;;;;27.55;25.25;;;23.10;99.90;;;;;;5058448;28;20024;-88
2023/10/16 10:47:21;;;;;;;26.90;24.77;;;22.90;99.90;;;;;;5068518;28;20059;-87
2023/10/16 10:49:51;;;;;;;26.02;24.17;;;22.80;99.90;;;;;;5058286;28;20038;-87
2023/10/16 10:52:20;;;;;;;27.35;25.15;;;22.50;99.90;;;;;;5057218;28;20049;-83
2023/10/16 10:55:25;;;;;;;26.20;24.63;;;22.40;99.90;;;;;;5057077;28;20143;-83
2023/10/16 10:58:01;;;;;;;26.55;24.63;;;22.40;99.90;;;;;;5073929;28;20098;-83
2023/10/16 11:05:34;;;;;;;26.20;24.08;;;22.50;99.90;;;;;;5073546;28;20025;-82
2023/10/16 11:10:44;;;;;;;27.10;25.08;;;22.70;99.90;;;;;;5073507;28;20438;-83
2023/10/16 11:13:12;;;;;;;27.40;24.98;;;22.50;99.90;;;;;;5056568;28;20043;-82
2023/10/16 11:15:52;;;;;;;26.65;24.75;;;22.50;99.90;;;;;;5057577;28;20032;-82
2023/10/16 11:18:20;;;;;;;28.05;25.90;;;22.40;99.90;;;;;;5075431;28;20116;-82
2023/10/16 11:21:25;;;;;;;27.08;24.98;;;22.40;99.90;;;;;;5094005;28;20427;-82
2023/10/16 11:24:00;;;;;;;26.80;25.10;;;22.30;99.90;;;;;;5093590;28;20107;-84
2023/10/16 11:26:27;;;;;;;27.10;24.80;;;22.30;99.90;;;;;;5076562;28;20485;-80
2023/10/16 11:28:55;;;;;;;27.02;24.75;;;22.10;99.90;;;;;;5094609;28;20026;-84
2023/10/16 11:31:24;;;;;;;26.90;24.77;;;22.30;99.90;;;;;;5076738;28;20500;-86
2023/10/16 11:34:01;;;;;;;26.50;24.33;;;22.20;99.90;;;;;;5076546;28;20040;-84
2023/10/16 11:36:38;;;;;;;26.73;24.90;;;22.30;99.90;;;;;;5076438;28;20050;-84
2023/10/16 11:39:19;;;;;;;26.92;24.80;;;22.30;99.90;;;;;;5076931;28;20028;-83
2023/10/16 11:41:54;;;;;;;25.85;23.95;;;22.10;99.90;;;;;;5077079;28;20032;-83
2023/10/16 11:44:25;;;;;;;26.65;24.63;;;22.10;99.90;;;;;;5076512;28;20122;-78
2023/10/16 11:46:52;;;;;;;26.63;24.63;;;22.00;99.90;;;;;;5093202;28;20620;-77
2023/10/16 11:55:03;;;;;;;26.55;24.52;;;21.90;99.90;;;;;;5081626;28;20440;-77
2023/10/16 11:57:33;;;;;;;25.95;24.15;;;22.00;99.90;;;;;;5093236;28;20103;-77
2023/10/16 12:00:28;;;;;;;26.77;24.45;;;21.90;99.90;;;;;;5093746;28;20028;-78
2023/10/16 12:02:56;;;;;;;26.75;25.00;;;21.90;99.90;;;;;;5092733;28;20108;-78
2023/10/16 12:05:28;;;;;;;25.98;24.08;;;22.00;99.90;;;;;;5094008;28;20032;-83
2023/10/16 12:07:57;;;;;;;27.58;24.95;;;21.90;99.90;;;;;;5075849;28;20370;-79
2023/10/16 12:10:23;;;;;;;27.35;25.17;;;21.80;99.90;;;;;;5092392;28;20099;-78
2023/10/16 12:12:50;;;;;;;27.40;25.15;;;21.80;99.90;;;;;;5093431;28;20036;-79
2023/10/16 12:15:16;;;;;;;26.88;24.63;;;21.90;99.90;;;;;;5093303;28;20024;-79
2023/10/16 12:17:43;;;;;;;27.08;24.92;;;22.00;99.90;;;;;;5075571;28;20052;-79
2023/10/16 12:20:12;;;;;;;27.50;25.23;;;21.90;99.90;;;;;;5093352;28;20069;-78
2023/10/16 12:22:39;;;;;;;27.00;24.80;;;21.70;99.90;;;;;;5078478;28;20025;-77
2023/10/16 12:25:09;;;;;;;25.45;23.85;;;21.60;99.90;;;;;;5073257;28;20449;-78
2023/10/16 12:27:36;;;;;;;26.85;24.85;;;21.40;99.90;;;;;;5073210;28;20111;-78
2023/10/16 12:30:05;;;;;;;27.33;25.10;;;21.30;99.90;;;;;;5087507;28;20388;-77
2023/10/16 12:32:33;;;;;;;26.77;24.90;;;21.40;99.90;;;;;;5093495;28;20044;-84
2023/10/16 12:35:00;;;;;;;26.08;24.20;;;21.30;99.90;;;;;;5076004;28;20020;-78
2023/10/16 12:37:27;;;;;;;27.23;25.40;;;21.20;99.90;;;;;;5092121;28;20032;-80
2023/10/16 12:39:55;;;;;;;26.70;24.67;;;21.20;99.90;;;;;;5093596;28;20046;-86
2023/10/16 12:42:21;;;;;;;26.75;24.60;;;21.20;99.90;;;;;;5075303;28;20032;-80
2023/10/16 12:44:48;;;;;;;27.13;25.02;;;21.20;99.90;;;;;;5075179;28;20023;-80
2023/10/16 12:47:14;;;;;;;25.95;24.08;;;21.20;99.90;;;;;;5091762;28;20032;-81
2023/10/16 12:49:41;;;;;;;26.05;24.10;;;21.40;99.90;;;;;;5091713;28;20021;-82
2023/10/16 12:52:07;;;;;;;26.77;24.98;;;21.40;99.90;;;;;;5091604;28;20079;-78
2023/10/16 12:54:56;;;;;;;26.35;24.42;;;21.30;99.90;;;;;;5093304;28;20024;-80
2023/10/16 12:57:24;;;;;;;27.08;24.67;;;21.30;99.90;;;;;;5092058;28;20028;-84
2023/10/16 12:59:50;;;;;;;25.80;24.08;;;21.40;99.90;;;;;;5075446;28;20115;-82
2023/10/16 13:02:25;;;;;;;26.77;24.98;;;21.60;99.90;;;;;;5075328;28;20447;-82
2023/10/16 13:04:53;;;;;;;26.75;24.80;;;21.70;99.90;;;;;;5093281;28;20034;-80
2023/10/16 13:07:22;;;;;;;26.80;25.05;;;21.60;99.90;;;;;;5075388;28;20025;-79
2023/10/16 13:09:48;;;;;;;26.65;24.90;;;21.60;99.90;;;;;;5078771;28;20028;-81
2023/10/16 13:12:14;;;;;;;26.83;24.77;;;21.50;99.90;;;;;;5096140;28;20448;-79
2023/10/16 13:14:41;;;;;;;26.13;24.52;;;21.40;99.90;;;;;;5096085;28;20028;-79
2023/10/16 13:17:08;;;;;;;26.17;24.17;;;21.20;99.90;;;;;;5096101;28;20027;-78
2023/10/16 13:19:35;;;;;;;26.70;24.80;;;21.10;99.90;;;;;;5095565;28;20027;-80
2023/10/16 13:22:10;;;;;;;26.73;24.67;;;21.10;99.90;;;;;;5096347;28;20024;-81
2023/10/16 13:24:37;;;;;;;26.42;24.65;;;21.10;99.90;;;;;;5079505;28;20028;-83
2023/10/16 13:27:06;;;;;;;26.40;24.40;;;20.90;99.90;;;;;;5079301;28;20098;-85
2023/10/16 13:29:33;;;;;;;26.23;24.48;;;20.80;99.90;;;;;;5080223;28;20035;-88
2023/10/16 13:32:13;;;;;;;27.15;25.08;;;20.80;99.90;;;;;;5079902;28;20448;-87
2023/10/16 13:34:45;;;;;;;27.13;24.92;;;20.70;99.90;;;;;;5080747;28;20481;-88
2023/10/16 13:37:13;;;;;;;26.45;24.52;;;20.80;99.90;;;;;;5079776;28;20052;-89
2023/10/16 13:39:40;;;;;;;25.45;23.85;;;20.90;99.90;;;;;;5079817;28;20028;-86
2023/10/16 13:42:14;;;;;;;25.73;23.83;;;20.90;99.90;;;;;;5079145;28;20055;-83
2023/10/16 13:44:42;;;;;;;25.65;24.05;;;20.90;99.90;;;;;;5079537;28;20077;-86
2023/10/16 13:47:09;;;;;;;27.00;24.67;;;20.90;99.90;;;;;;5079450;28;20076;-90
2023/10/16 13:49:41;;;;;;;26.30;24.52;;;21.00;99.90;;;;;;5079382;28;20590;-89
2023/10/16 13:52:08;;;;;;;26.17;24.17;;;20.90;99.90;;;;;;5079635;28;20044;-89
2023/10/16 13:54:38;;;;;;;26.33;24.38;;;20.80;99.90;;;;;;5079316;28;20032;-89
2023/10/16 13:57:06;;;;;;;26.45;24.70;;;20.70;99.90;;;;;;5079246;28;20020;-87
2023/10/16 13:59:34;;;;;;;26.70;24.63;;;20.60;99.90;;;;;;5079188;28;20024;-90
2023/10/16 14:02:05;;;;;;;26.67;24.90;;;20.60;99.90;;;;;;5079141;28;20481;-84
2023/10/16 14:04:46;;;;;;;26.27;24.48;;;20.70;99.90;;;;;;5079184;28;20089;-85
2023/10/16 14:07:38;;;;;;;27.10;24.80;;;20.80;99.90;;;;;;5079299;28;20060;-83
2023/10/16 14:11:47;;;;;;;25.73;23.92;;;20.70;99.90;;;;;;5096176;28;20137;-88
2023/10/16 14:14:24;;;;;;;25.67;23.80;;;20.60;99.90;;;;;;5079300;28;20123;-85
2023/10/16 14:17:16;;;;;;;25.05;23.27;;;20.50;99.90;;;;;;5078371;28;20102;-83
2023/10/16 14:19:58;;;;;;;26.02;24.13;;;20.50;99.90;;;;;;5097374;28;20020;-81
2023/10/16 19:24:49;;;;;;;25.35;23.33;;;19.00;99.90;;;;;;4933288;23;20070;-80
2023/10/16 23:45:09;;;;;;;25.55;23.80;;;18.40;99.90;;;;;;5113607;23;20055;-80
2023/10/16 23:47:36;;;;;;;25.05;23.52;;;18.30;99.90;;;;;;4923239;29;20057;-79
2023/10/16 23:50:06;;;;;;;26.00;24.30;;;18.30;99.90;;;;;;4956331;29;20436;-82
2023/10/16 23:52:52;;;;;;;25.73;23.90;;;18.30;99.90;;;;;;4922174;29;20042;-83
2023/10/16 23:55:19;;;;;;;25.38;23.52;;;18.30;99.90;;;;;;4923184;29;20038;-82
2023/10/16 23:57:49;;;;;;;25.00;23.38;;;18.30;99.90;;;;;;4904040;29;20494;-82
